sensor_id;sensor_type;location;lat;lon;timestamp;P1;durP1;ratioP1;P2;durP2;ratioP2
3916;SDS011;1973;50.518;7.318;2023-07-08T00:01:14;11.83;;;8.30;;
3916;SDS011;1973;50.518;7.318;2023-07-08T00:03:42;11.80;;;8.77;;
3916;SDS011;1973;50.518;7.318;2023-07-08T00:06:11;9.73;;;7.17;;
3916;SDS011;1973;50.518;7.318;2023-07-08T00:08:42;11.63;;;8.37;;
3916;SDS011;1973;50.518;7.318;2023-07-08T00:11:10;11.10;;;7.77;;
3916;SDS011;1973;50.518;7.318;2023-07-08T00:13:37;12.83;;;8.17;;
3916;SDS011;1973;50.518;7.318;2023-07-08T00:16:07;10.53;;;8.17;;
3916;SDS011;1973;50.518;7.318;2023-07-08T00:18:36;8.80;;;7.60;;
3916;SDS011;1973;50.518;7.318;2023-07-08T00:21:04;11.70;;;8.07;;
3916;SDS011;1973;50.518;7.318;2023-07-08T00:23:34;11.40;;;8.50;;
3916;SDS011;1973;50.518;7.318;2023-07-08T00:26:04;12.67;;;8.00;;
3916;SDS011;1973;50.518;7.318;2023-07-08T00:28:36;12.00;;;8.50;;
3916;SDS011;1973;50.518;7.318;2023-07-08T00:31:04;12.60;;;8.33;;
3916;SDS011;1973;50.518;7.318;2023-07-08T00:33:34;10.57;;;8.70;;
3916;SDS011;1973;50.518;7.318;2023-07-08T00:36:01;10.10;;;8.37;;
3916;SDS011;1973;50.518;7.318;2023-07-08T00:38:28;9.90;;;8.07;;
3916;SDS011;1973;50.518;7.318;2023-07-08T00:40:58;11.03;;;7.80;;
3916;SDS011;1973;50.518;7.318;2023-07-08T00:51:33;10.83;;;7.90;;
3916;SDS011;1973;50.518;7.318;2023-07-08T00:54:10;10.70;;;8.40;;
3916;SDS011;1973;50.518;7.318;2023-07-08T00:59:09;10.97;;;8.53;;
3916;SDS011;1973;50.518;7.318;2023-07-08T01:01:44;12.20;;;8.70;;
3916;SDS011;1973;50.518;7.318;2023-07-08T01:04:11;14.30;;;7.43;;
3916;SDS011;1973;50.518;7.318;2023-07-08T01:06:43;11.27;;;8.47;;
3916;SDS011;1973;50.518;7.318;2023-07-08T01:09:13;10.20;;;8.03;;
3916;SDS011;1973;50.518;7.318;2023-07-08T01:11:41;12.47;;;9.00;;
3916;SDS011;1973;50.518;7.318;2023-07-08T01:14:10;11.63;;;8.13;;
3916;SDS011;1973;50.518;7.318;2023-07-08T01:16:40;9.63;;;7.87;;
3916;SDS011;1973;50.518;7.318;2023-07-08T01:19:09;10.40;;;7.67;;
3916;SDS011;1973;50.518;7.318;2023-07-08T01:24:20;11.70;;;8.40;;
3916;SDS011;1973;50.518;7.318;2023-07-08T01:26:47;10.70;;;7.57;;
3916;SDS011;1973;50.518;7.318;2023-07-08T01:29:14;10.20;;;7.60;;
3916;SDS011;1973;50.518;7.318;2023-07-08T01:31:41;14.40;;;9.27;;
3916;SDS011;1973;50.518;7.318;2023-07-08T01:34:15;11.90;;;7.70;;
3916;SDS011;1973;50.518;7.318;2023-07-08T01:36:48;13.67;;;9.50;;
3916;SDS011;1973;50.518;7.318;2023-07-08T01:39:19;12.13;;;7.73;;
3916;SDS011;1973;50.518;7.318;2023-07-08T01:41:47;11.10;;;8.10;;
3916;SDS011;1973;50.518;7.318;2023-07-08T01:44:21;11.57;;;8.40;;
3916;SDS011;1973;50.518;7.318;2023-07-08T01:47:07;10.63;;;8.20;;
3916;SDS011;1973;50.518;7.318;2023-07-08T01:49:38;9.80;;;7.93;;
3916;SDS011;1973;50.518;7.318;2023-07-08T01:52:06;11.20;;;8.60;;
3916;SDS011;1973;50.518;7.318;2023-07-08T01:54:34;12.00;;;9.07;;
3916;SDS011;1973;50.518;7.318;2023-07-08T01:57:01;11.13;;;8.40;;
3916;SDS011;1973;50.518;7.318;2023-07-08T01:59:28;9.70;;;8.03;;
3916;SDS011;1973;50.518;7.318;2023-07-08T02:01:55;9.37;;;8.00;;
3916;SDS011;1973;50.518;7.318;2023-07-08T02:04:23;10.77;;;8.50;;
3916;SDS011;1973;50.518;7.318;2023-07-08T02:06:54;11.30;;;8.30;;
3916;SDS011;1973;50.518;7.318;2023-07-08T02:09:22;10.37;;;8.07;;
3916;SDS011;1973;50.518;7.318;2023-07-08T02:11:49;10.13;;;8.00;;
3916;SDS011;1973;50.518;7.318;2023-07-08T02:14:15;15.53;;;8.53;;
3916;SDS011;1973;50.518;7.318;2023-07-08T02:16:42;11.67;;;8.53;;
3916;SDS011;1973;50.518;7.318;2023-07-08T02:19:10;10.90;;;8.47;;
3916;SDS011;1973;50.518;7.318;2023-07-08T02:21:37;8.80;;;7.53;;
3916;SDS011;1973;50.518;7.318;2023-07-08T02:24:05;12.00;;;8.70;;
3916;SDS011;1973;50.518;7.318;2023-07-08T02:26:32;9.03;;;7.47;;
3916;SDS011;1973;50.518;7.318;2023-07-08T02:28:59;9.77;;;8.17;;
3916;SDS011;1973;50.518;7.318;2023-07-08T02:31:26;10.23;;;7.93;;
3916;SDS011;1973;50.518;7.318;2023-07-08T02:33:53;11.20;;;8.10;;
3916;SDS011;1973;50.518;7.318;2023-07-08T02:36:20;10.70;;;8.10;;
3916;SDS011;1973;50.518;7.318;2023-07-08T02:38:47;10.10;;;8.20;;
3916;SDS011;1973;50.518;7.318;2023-07-08T02:41:14;10.73;;;7.97;;
3916;SDS011;1973;50.518;7.318;2023-07-08T02:43:40;8.97;;;8.07;;
3916;SDS011;1973;50.518;7.318;2023-07-08T02:46:07;10.67;;;8.00;;
3916;SDS011;1973;50.518;7.318;2023-07-08T02:48:34;11.37;;;9.00;;
3916;SDS011;1973;50.518;7.318;2023-07-08T02:51:01;11.80;;;9.23;;
3916;SDS011;1973;50.518;7.318;2023-07-08T02:53:29;10.37;;;9.00;;
3916;SDS011;1973;50.518;7.318;2023-07-08T02:55:56;9.57;;;7.87;;
3916;SDS011;1973;50.518;7.318;2023-07-08T02:58:24;10.20;;;7.40;;
3916;SDS011;1973;50.518;7.318;2023-07-08T03:00:54;10.77;;;8.17;;
3916;SDS011;1973;50.518;7.318;2023-07-08T03:03:21;9.00;;;7.50;;
3916;SDS011;1973;50.518;7.318;2023-07-08T03:05:59;9.50;;;8.07;;
3916;SDS011;1973;50.518;7.318;2023-07-08T03:08:27;9.97;;;7.83;;
3916;SDS011;1973;50.518;7.318;2023-07-08T03:10:57;10.93;;;8.70;;
3916;SDS011;1973;50.518;7.318;2023-07-08T03:13:25;9.23;;;7.53;;
3916;SDS011;1973;50.518;7.318;2023-07-08T03:15:53;11.20;;;7.40;;
3916;SDS011;1973;50.518;7.318;2023-07-08T03:18:21;9.57;;;7.90;;
3916;SDS011;1973;50.518;7.318;2023-07-08T03:20:50;9.33;;;7.47;;
3916;SDS011;1973;50.518;7.318;2023-07-08T03:23:16;10.50;;;7.80;;
3916;SDS011;1973;50.518;7.318;2023-07-08T03:25:43;9.57;;;7.63;;
3916;SDS011;1973;50.518;7.318;2023-07-08T03:28:09;10.00;;;8.10;;
3916;SDS011;1973;50.518;7.318;2023-07-08T03:30:41;9.70;;;7.83;;
3916;SDS011;1973;50.518;7.318;2023-07-08T03:33:09;9.07;;;7.33;;
3916;SDS011;1973;50.518;7.318;2023-07-08T03:35:36;10.37;;;8.03;;
3916;SDS011;1973;50.518;7.318;2023-07-08T03:38:04;10.17;;;7.07;;
3916;SDS011;1973;50.518;7.318;2023-07-08T03:40:31;10.50;;;7.20;;
3916;SDS011;1973;50.518;7.318;2023-07-08T03:42:58;10.80;;;7.77;;
3916;SDS011;1973;50.518;7.318;2023-07-08T03:45:25;9.53;;;7.67;;
3916;SDS011;1973;50.518;7.318;2023-07-08T03:47:52;11.00;;;8.40;;
3916;SDS011;1973;50.518;7.318;2023-07-08T03:50:20;10.47;;;7.13;;
3916;SDS011;1973;50.518;7.318;2023-07-08T03:52:49;12.53;;;7.83;;
3916;SDS011;1973;50.518;7.318;2023-07-08T03:55:17;11.13;;;7.73;;
3916;SDS011;1973;50.518;7.318;2023-07-08T03:57:44;14.40;;;7.00;;
3916;SDS011;1973;50.518;7.318;2023-07-08T04:00:11;9.53;;;6.83;;
3916;SDS011;1973;50.518;7.318;2023-07-08T04:02:39;9.37;;;7.10;;
3916;SDS011;1973;50.518;7.318;2023-07-08T04:05:06;11.80;;;7.37;;
3916;SDS011;1973;50.518;7.318;2023-07-08T04:07:36;10.83;;;7.33;;
3916;SDS011;1973;50.518;7.318;2023-07-08T04:10:03;8.83;;;7.20;;
3916;SDS011;1973;50.518;7.318;2023-07-08T04:12:30;10.87;;;7.27;;
3916;SDS011;1973;50.518;7.318;2023-07-08T04:14:56;10.07;;;7.10;;
3916;SDS011;1973;50.518;7.318;2023-07-08T04:17:23;8.60;;;6.83;;
3916;SDS011;1973;50.518;7.318;2023-07-08T04:19:50;8.23;;;6.47;;
3916;SDS011;1973;50.518;7.318;2023-07-08T04:22:16;8.60;;;7.40;;
3916;SDS011;1973;50.518;7.318;2023-07-08T04:24:43;8.67;;;6.80;;
3916;SDS011;1973;50.518;7.318;2023-07-08T04:27:14;7.60;;;6.80;;
3916;SDS011;1973;50.518;7.318;2023-07-08T04:29:42;11.57;;;7.37;;
3916;SDS011;1973;50.518;7.318;2023-07-08T04:32:10;9.07;;;6.93;;
3916;SDS011;1973;50.518;7.318;2023-07-08T04:34:36;11.10;;;7.03;;
3916;SDS011;1973;50.518;7.318;2023-07-08T04:37:03;8.30;;;6.50;;
3916;SDS011;1973;50.518;7.318;2023-07-08T04:39:31;8.33;;;6.63;;
3916;SDS011;1973;50.518;7.318;2023-07-08T04:41:58;8.77;;;6.80;;
3916;SDS011;1973;50.518;7.318;2023-07-08T04:44:24;11.60;;;7.67;;
3916;SDS011;1973;50.518;7.318;2023-07-08T04:46:52;8.93;;;7.27;;
3916;SDS011;1973;50.518;7.318;2023-07-08T04:49:21;10.40;;;7.67;;
3916;SDS011;1973;50.518;7.318;2023-07-08T04:51:49;8.90;;;6.90;;
3916;SDS011;1973;50.518;7.318;2023-07-08T04:54:17;9.63;;;7.37;;
3916;SDS011;1973;50.518;7.318;2023-07-08T04:56:44;9.10;;;7.00;;
3916;SDS011;1973;50.518;7.318;2023-07-08T04:59:14;9.63;;;6.97;;
3916;SDS011;1973;50.518;7.318;2023-07-08T05:01:42;9.40;;;7.60;;
3916;SDS011;1973;50.518;7.318;2023-07-08T05:04:12;7.60;;;6.57;;
3916;SDS011;1973;50.518;7.318;2023-07-08T05:06:40;9.03;;;6.57;;
3916;SDS011;1973;50.518;7.318;2023-07-08T05:09:07;8.17;;;6.37;;
3916;SDS011;1973;50.518;7.318;2023-07-08T05:11:35;9.87;;;7.03;;
3916;SDS011;1973;50.518;7.318;2023-07-08T05:14:02;10.03;;;7.07;;
3916;SDS011;1973;50.518;7.318;2023-07-08T05:16:32;11.30;;;7.87;;
3916;SDS011;1973;50.518;7.318;2023-07-08T05:18:59;8.97;;;7.00;;
3916;SDS011;1973;50.518;7.318;2023-07-08T05:21:28;11.60;;;6.53;;
3916;SDS011;1973;50.518;7.318;2023-07-08T05:24:02;8.33;;;6.27;;
3916;SDS011;1973;50.518;7.318;2023-07-08T05:26:30;8.00;;;6.20;;
3916;SDS011;1973;50.518;7.318;2023-07-08T05:28:57;8.30;;;6.93;;
3916;SDS011;1973;50.518;7.318;2023-07-08T05:31:24;8.13;;;6.77;;
3916;SDS011;1973;50.518;7.318;2023-07-08T05:34:07;8.80;;;6.80;;
3916;SDS011;1973;50.518;7.318;2023-07-08T05:36:34;8.23;;;7.20;;
3916;SDS011;1973;50.518;7.318;2023-07-08T05:39:00;9.00;;;6.93;;
3916;SDS011;1973;50.518;7.318;2023-07-08T05:41:27;7.80;;;6.17;;
3916;SDS011;1973;50.518;7.318;2023-07-08T05:43:54;8.40;;;6.77;;
3916;SDS011;1973;50.518;7.318;2023-07-08T05:46:20;7.60;;;6.33;;
3916;SDS011;1973;50.518;7.318;2023-07-08T05:48:47;8.60;;;6.37;;
3916;SDS011;1973;50.518;7.318;2023-07-08T05:51:15;10.70;;;6.50;;
3916;SDS011;1973;50.518;7.318;2023-07-08T05:53:41;7.67;;;6.77;;
3916;SDS011;1973;50.518;7.318;2023-07-08T05:56:08;9.50;;;6.33;;
3916;SDS011;1973;50.518;7.318;2023-07-08T05:58:35;9.33;;;7.17;;
3916;SDS011;1973;50.518;7.318;2023-07-08T06:01:01;7.60;;;6.80;;
3916;SDS011;1973;50.518;7.318;2023-07-08T06:03:29;8.83;;;7.13;;
3916;SDS011;1973;50.518;7.318;2023-07-08T06:05:55;10.27;;;8.67;;
3916;SDS011;1973;50.518;7.318;2023-07-08T06:08:22;10.80;;;8.43;;
3916;SDS011;1973;50.518;7.318;2023-07-08T06:10:49;10.90;;;8.07;;
3916;SDS011;1973;50.518;7.318;2023-07-08T06:13:16;11.37;;;8.50;;
3916;SDS011;1973;50.518;7.318;2023-07-08T06:15:43;12.67;;;8.60;;
3916;SDS011;1973;50.518;7.318;2023-07-08T06:18:09;14.17;;;9.93;;
3916;SDS011;1973;50.518;7.318;2023-07-08T06:20:36;14.03;;;9.70;;
3916;SDS011;1973;50.518;7.318;2023-07-08T06:23:02;12.53;;;9.00;;
3916;SDS011;1973;50.518;7.318;2023-07-08T06:25:29;12.00;;;9.30;;
3916;SDS011;1973;50.518;7.318;2023-07-08T06:27:55;16.40;;;9.67;;
3916;SDS011;1973;50.518;7.318;2023-07-08T06:30:22;11.90;;;9.10;;
3916;SDS011;1973;50.518;7.318;2023-07-08T06:32:49;14.20;;;9.70;;
3916;SDS011;1973;50.518;7.318;2023-07-08T06:35:15;11.43;;;9.07;;
3916;SDS011;1973;50.518;7.318;2023-07-08T06:37:42;10.53;;;8.80;;
3916;SDS011;1973;50.518;7.318;2023-07-08T06:40:08;10.07;;;8.40;;
3916;SDS011;1973;50.518;7.318;2023-07-08T06:42:35;13.53;;;8.97;;
3916;SDS011;1973;50.518;7.318;2023-07-08T06:45:02;10.50;;;8.03;;
3916;SDS011;1973;50.518;7.318;2023-07-08T06:47:29;12.00;;;9.00;;
3916;SDS011;1973;50.518;7.318;2023-07-08T06:49:56;9.40;;;7.80;;
3916;SDS011;1973;50.518;7.318;2023-07-08T06:52:25;10.90;;;8.57;;
3916;SDS011;1973;50.518;7.318;2023-07-08T06:54:51;9.57;;;7.83;;
3916;SDS011;1973;50.518;7.318;2023-07-08T06:57:18;11.30;;;8.07;;
3916;SDS011;1973;50.518;7.318;2023-07-08T06:59:45;11.00;;;8.33;;
3916;SDS011;1973;50.518;7.318;2023-07-08T07:02:11;10.70;;;8.63;;
3916;SDS011;1973;50.518;7.318;2023-07-08T07:04:39;8.53;;;6.60;;
3916;SDS011;1973;50.518;7.318;2023-07-08T07:07:06;9.00;;;7.13;;
3916;SDS011;1973;50.518;7.318;2023-07-08T07:09:33;10.23;;;7.40;;
3916;SDS011;1973;50.518;7.318;2023-07-08T07:11:59;11.23;;;7.30;;
3916;SDS011;1973;50.518;7.318;2023-07-08T07:14:26;8.53;;;7.33;;
3916;SDS011;1973;50.518;7.318;2023-07-08T07:16:55;8.53;;;7.10;;
3916;SDS011;1973;50.518;7.318;2023-07-08T07:19:25;8.93;;;7.63;;
3916;SDS011;1973;50.518;7.318;2023-07-08T07:21:51;9.63;;;6.80;;
3916;SDS011;1973;50.518;7.318;2023-07-08T07:24:18;9.40;;;7.80;;
3916;SDS011;1973;50.518;7.318;2023-07-08T07:26:44;10.03;;;8.10;;
3916;SDS011;1973;50.518;7.318;2023-07-08T07:29:11;9.17;;;7.60;;
3916;SDS011;1973;50.518;7.318;2023-07-08T07:31:39;11.10;;;7.17;;
3916;SDS011;1973;50.518;7.318;2023-07-08T07:34:06;8.53;;;7.00;;
3916;SDS011;1973;50.518;7.318;2023-07-08T07:36:33;10.33;;;7.10;;
3916;SDS011;1973;50.518;7.318;2023-07-08T07:38:59;9.67;;;7.17;;
3916;SDS011;1973;50.518;7.318;2023-07-08T07:41:26;8.83;;;6.93;;
3916;SDS011;1973;50.518;7.318;2023-07-08T07:43:52;11.27;;;7.60;;
3916;SDS011;1973;50.518;7.318;2023-07-08T07:46:19;8.70;;;6.60;;
3916;SDS011;1973;50.518;7.318;2023-07-08T07:48:46;9.27;;;7.50;;
3916;SDS011;1973;50.518;7.318;2023-07-08T07:51:12;8.00;;;6.40;;
3916;SDS011;1973;50.518;7.318;2023-07-08T07:53:39;10.37;;;6.70;;
3916;SDS011;1973;50.518;7.318;2023-07-08T07:56:06;7.87;;;6.40;;
3916;SDS011;1973;50.518;7.318;2023-07-08T07:58:33;8.80;;;6.67;;
3916;SDS011;1973;50.518;7.318;2023-07-08T08:01:00;11.77;;;6.27;;
3916;SDS011;1973;50.518;7.318;2023-07-08T08:03:28;7.17;;;6.07;;
3916;SDS011;1973;50.518;7.318;2023-07-08T08:05:54;10.80;;;6.57;;
3916;SDS011;1973;50.518;7.318;2023-07-08T08:08:21;7.60;;;6.10;;
3916;SDS011;1973;50.518;7.318;2023-07-08T08:10:48;10.73;;;6.70;;
3916;SDS011;1973;50.518;7.318;2023-07-08T08:13:15;9.83;;;6.83;;
3916;SDS011;1973;50.518;7.318;2023-07-08T08:15:42;10.97;;;7.00;;
3916;SDS011;1973;50.518;7.318;2023-07-08T08:18:08;11.07;;;6.77;;
3916;SDS011;1973;50.518;7.318;2023-07-08T08:20:35;9.30;;;6.93;;
3916;SDS011;1973;50.518;7.318;2023-07-08T08:23:01;7.80;;;5.90;;
3916;SDS011;1973;50.518;7.318;2023-07-08T08:25:28;9.07;;;6.90;;
3916;SDS011;1973;50.518;7.318;2023-07-08T08:27:55;10.57;;;6.83;;
3916;SDS011;1973;50.518;7.318;2023-07-08T08:30:21;6.77;;;6.07;;
3916;SDS011;1973;50.518;7.318;2023-07-08T08:32:48;8.00;;;5.83;;
3916;SDS011;1973;50.518;7.318;2023-07-08T08:35:15;11.23;;;6.23;;
3916;SDS011;1973;50.518;7.318;2023-07-08T08:37:42;8.50;;;7.30;;
3916;SDS011;1973;50.518;7.318;2023-07-08T08:40:11;10.50;;;6.43;;
3916;SDS011;1973;50.518;7.318;2023-07-08T08:42:44;7.17;;;6.00;;
3916;SDS011;1973;50.518;7.318;2023-07-08T08:45:19;6.77;;;5.77;;
3916;SDS011;1973;50.518;7.318;2023-07-08T08:47:49;6.80;;;6.00;;
3916;SDS011;1973;50.518;7.318;2023-07-08T08:50:32;6.37;;;5.67;;
3916;SDS011;1973;50.518;7.318;2023-07-08T08:53:06;13.63;;;6.67;;
3916;SDS011;1973;50.518;7.318;2023-07-08T08:55:38;6.83;;;4.97;;
3916;SDS011;1973;50.518;7.318;2023-07-08T09:00:55;6.50;;;5.20;;
3916;SDS011;1973;50.518;7.318;2023-07-08T09:09:20;7.73;;;5.53;;
3916;SDS011;1973;50.518;7.318;2023-07-08T09:11:51;8.00;;;6.23;;
3916;SDS011;1973;50.518;7.318;2023-07-08T09:14:27;8.30;;;5.40;;
3916;SDS011;1973;50.518;7.318;2023-07-08T09:19:42;9.97;;;6.10;;
3916;SDS011;1973;50.518;7.318;2023-07-08T09:22:15;6.40;;;4.60;;
3916;SDS011;1973;50.518;7.318;2023-07-08T09:27:17;11.13;;;5.93;;
3916;SDS011;1973;50.518;7.318;2023-07-08T09:29:43;7.90;;;6.20;;
3916;SDS011;1973;50.518;7.318;2023-07-08T09:32:17;8.17;;;5.73;;
3916;SDS011;1973;50.518;7.318;2023-07-08T09:34:53;7.03;;;4.97;;
3916;SDS011;1973;50.518;7.318;2023-07-08T09:39:55;6.20;;;5.53;;
3916;SDS011;1973;50.518;7.318;2023-07-08T09:42:43;10.97;;;6.40;;
3916;SDS011;1973;50.518;7.318;2023-07-08T09:45:14;6.50;;;5.00;;
3916;SDS011;1973;50.518;7.318;2023-07-08T09:47:43;5.73;;;5.10;;
3916;SDS011;1973;50.518;7.318;2023-07-08T09:52:48;9.70;;;7.00;;
3916;SDS011;1973;50.518;7.318;2023-07-08T09:55:16;8.30;;;5.93;;
3916;SDS011;1973;50.518;7.318;2023-07-08T09:57:44;5.87;;;5.27;;
3916;SDS011;1973;50.518;7.318;2023-07-08T10:00:14;8.77;;;6.70;;
3916;SDS011;1973;50.518;7.318;2023-07-08T10:03:26;8.47;;;5.80;;
3916;SDS011;1973;50.518;7.318;2023-07-08T10:05:45;7.97;;;6.40;;
3916;SDS011;1973;50.518;7.318;2023-07-08T10:08:17;8.27;;;6.33;;
3916;SDS011;1973;50.518;7.318;2023-07-08T10:10:49;7.87;;;6.27;;
3916;SDS011;1973;50.518;7.318;2023-07-08T10:13:39;7.53;;;6.10;;
3916;SDS011;1973;50.518;7.318;2023-07-08T10:16:15;7.20;;;5.60;;
3916;SDS011;1973;50.518;7.318;2023-07-08T10:18:49;5.83;;;5.23;;
3916;SDS011;1973;50.518;7.318;2023-07-08T10:29:55;6.93;;;5.80;;
3916;SDS011;1973;50.518;7.318;2023-07-08T10:38:36;7.27;;;6.13;;
3916;SDS011;1973;50.518;7.318;2023-07-08T10:41:00;10.20;;;5.50;;
3916;SDS011;1973;50.518;7.318;2023-07-08T10:54:03;6.67;;;5.53;;
3916;SDS011;1973;50.518;7.318;2023-07-08T10:56:51;8.10;;;5.73;;
3916;SDS011;1973;50.518;7.318;2023-07-08T10:59:33;6.60;;;4.80;;
3916;SDS011;1973;50.518;7.318;2023-07-08T11:07:43;6.80;;;5.80;;
3916;SDS011;1973;50.518;7.318;2023-07-08T11:10:16;9.43;;;5.80;;
3916;SDS011;1973;50.518;7.318;2023-07-08T11:12:55;9.13;;;6.50;;
3916;SDS011;1973;50.518;7.318;2023-07-08T11:15:28;8.40;;;6.27;;
3916;SDS011;1973;50.518;7.318;2023-07-08T11:18:03;8.63;;;5.80;;
3916;SDS011;1973;50.518;7.318;2023-07-08T11:20:40;7.97;;;5.90;;
3916;SDS011;1973;50.518;7.318;2023-07-08T11:26:41;8.50;;;5.73;;
3916;SDS011;1973;50.518;7.318;2023-07-08T11:28:48;7.70;;;6.20;;
3916;SDS011;1973;50.518;7.318;2023-07-08T11:31:17;7.60;;;5.73;;
3916;SDS011;1973;50.518;7.318;2023-07-08T11:33:45;6.73;;;6.03;;
3916;SDS011;1973;50.518;7.318;2023-07-08T11:36:13;5.90;;;5.20;;
3916;SDS011;1973;50.518;7.318;2023-07-08T11:38:49;11.30;;;5.57;;
3916;SDS011;1973;50.518;7.318;2023-07-08T11:41:20;9.50;;;6.20;;
3916;SDS011;1973;50.518;7.318;2023-07-08T11:43:50;7.13;;;5.53;;
3916;SDS011;1973;50.518;7.318;2023-07-08T11:46:20;7.37;;;5.03;;
3916;SDS011;1973;50.518;7.318;2023-07-08T11:48:52;6.80;;;6.10;;
3916;SDS011;1973;50.518;7.318;2023-07-08T11:51:23;11.23;;;5.80;;
3916;SDS011;1973;50.518;7.318;2023-07-08T11:54:27;8.17;;;5.63;;
3916;SDS011;1973;50.518;7.318;2023-07-08T11:59:22;8.90;;;6.17;;
3916;SDS011;1973;50.518;7.318;2023-07-08T12:04:23;10.83;;;6.50;;
3916;SDS011;1973;50.518;7.318;2023-07-08T12:07:03;12.27;;;6.07;;
3916;SDS011;1973;50.518;7.318;2023-07-08T12:10:05;7.43;;;6.73;;
3916;SDS011;1973;50.518;7.318;2023-07-08T12:12:37;9.30;;;6.03;;
3916;SDS011;1973;50.518;7.318;2023-07-08T12:15:29;8.80;;;6.23;;
3916;SDS011;1973;50.518;7.318;2023-07-08T12:18:00;7.17;;;6.47;;
3916;SDS011;1973;50.518;7.318;2023-07-08T12:20:31;7.60;;;5.83;;
3916;SDS011;1973;50.518;7.318;2023-07-08T12:23:01;7.17;;;6.13;;
3916;SDS011;1973;50.518;7.318;2023-07-08T12:25:30;8.20;;;7.03;;
3916;SDS011;1973;50.518;7.318;2023-07-08T12:28:01;8.77;;;6.00;;
3916;SDS011;1973;50.518;7.318;2023-07-08T12:30:29;8.90;;;6.77;;
3916;SDS011;1973;50.518;7.318;2023-07-08T12:32:58;8.37;;;6.53;;
3916;SDS011;1973;50.518;7.318;2023-07-08T12:35:27;8.80;;;6.23;;
3916;SDS011;1973;50.518;7.318;2023-07-08T12:37:59;14.53;;;6.47;;
3916;SDS011;1973;50.518;7.318;2023-07-08T12:40:44;7.50;;;5.70;;
3916;SDS011;1973;50.518;7.318;2023-07-08T12:43:10;9.27;;;6.53;;
3916;SDS011;1973;50.518;7.318;2023-07-08T12:45:38;9.80;;;7.17;;
3916;SDS011;1973;50.518;7.318;2023-07-08T12:48:04;8.87;;;6.80;;
3916;SDS011;1973;50.518;7.318;2023-07-08T12:50:31;7.73;;;6.93;;
3916;SDS011;1973;50.518;7.318;2023-07-08T12:52:58;14.17;;;6.93;;
3916;SDS011;1973;50.518;7.318;2023-07-08T12:55:24;10.87;;;6.57;;
3916;SDS011;1973;50.518;7.318;2023-07-08T12:57:51;9.90;;;7.23;;
3916;SDS011;1973;50.518;7.318;2023-07-08T13:00:21;8.50;;;6.83;;
3916;SDS011;1973;50.518;7.318;2023-07-08T13:02:55;7.30;;;6.60;;
3916;SDS011;1973;50.518;7.318;2023-07-08T13:05:25;10.40;;;6.37;;
3916;SDS011;1973;50.518;7.318;2023-07-08T13:07:52;7.53;;;6.50;;
3916;SDS011;1973;50.518;7.318;2023-07-08T13:10:20;9.37;;;7.27;;
3916;SDS011;1973;50.518;7.318;2023-07-08T13:12:51;8.10;;;6.70;;
3916;SDS011;1973;50.518;7.318;2023-07-08T13:15:25;9.50;;;6.40;;
3916;SDS011;1973;50.518;7.318;2023-07-08T13:17:57;6.60;;;5.93;;
3916;SDS011;1973;50.518;7.318;2023-07-08T13:20:23;8.83;;;6.70;;
3916;SDS011;1973;50.518;7.318;2023-07-08T13:22:53;8.67;;;7.10;;
3916;SDS011;1973;50.518;7.318;2023-07-08T13:25:29;7.73;;;6.93;;
3916;SDS011;1973;50.518;7.318;2023-07-08T13:28:01;7.33;;;6.63;;
3916;SDS011;1973;50.518;7.318;2023-07-08T13:30:48;8.13;;;7.30;;
3916;SDS011;1973;50.518;7.318;2023-07-08T13:33:20;10.63;;;7.13;;
3916;SDS011;1973;50.518;7.318;2023-07-08T13:35:47;9.03;;;7.57;;
3916;SDS011;1973;50.518;7.318;2023-07-08T13:38:15;9.83;;;6.93;;
3916;SDS011;1973;50.518;7.318;2023-07-08T13:40:46;9.17;;;6.73;;
3916;SDS011;1973;50.518;7.318;2023-07-08T13:43:14;11.53;;;6.20;;
3916;SDS011;1973;50.518;7.318;2023-07-08T13:45:43;9.23;;;6.50;;
3916;SDS011;1973;50.518;7.318;2023-07-08T13:48:19;6.67;;;5.97;;
3916;SDS011;1973;50.518;7.318;2023-07-08T13:50:50;7.37;;;6.40;;
3916;SDS011;1973;50.518;7.318;2023-07-08T13:53:23;9.13;;;6.90;;
3916;SDS011;1973;50.518;7.318;2023-07-08T13:56:02;9.03;;;7.10;;
3916;SDS011;1973;50.518;7.318;2023-07-08T13:58:30;7.90;;;7.10;;
3916;SDS011;1973;50.518;7.318;2023-07-08T14:00:57;6.63;;;5.93;;
3916;SDS011;1973;50.518;7.318;2023-07-08T14:03:25;8.27;;;6.30;;
3916;SDS011;1973;50.518;7.318;2023-07-08T14:05:52;8.37;;;6.70;;
3916;SDS011;1973;50.518;7.318;2023-07-08T14:08:18;7.20;;;6.50;;
3916;SDS011;1973;50.518;7.318;2023-07-08T14:10:45;8.33;;;7.20;;
3916;SDS011;1973;50.518;7.318;2023-07-08T14:13:12;10.17;;;6.90;;
3916;SDS011;1973;50.518;7.318;2023-07-08T14:15:38;7.40;;;5.90;;
3916;SDS011;1973;50.518;7.318;2023-07-08T14:18:05;8.63;;;6.50;;
3916;SDS011;1973;50.518;7.318;2023-07-08T14:20:32;9.17;;;7.40;;
3916;SDS011;1973;50.518;7.318;2023-07-08T14:22:59;10.90;;;7.23;;
3916;SDS011;1973;50.518;7.318;2023-07-08T14:25:25;8.80;;;6.87;;
3916;SDS011;1973;50.518;7.318;2023-07-08T14:27:52;8.50;;;6.70;;
3916;SDS011;1973;50.518;7.318;2023-07-08T14:30:18;6.70;;;6.10;;
3916;SDS011;1973;50.518;7.318;2023-07-08T14:32:45;7.70;;;6.97;;
3916;SDS011;1973;50.518;7.318;2023-07-08T14:35:25;9.17;;;7.00;;
3916;SDS011;1973;50.518;7.318;2023-07-08T14:37:53;7.13;;;6.43;;
3916;SDS011;1973;50.518;7.318;2023-07-08T14:42:50;10.03;;;8.23;;
3916;SDS011;1973;50.518;7.318;2023-07-08T14:45:22;7.50;;;6.37;;
3916;SDS011;1973;50.518;7.318;2023-07-08T14:47:49;9.40;;;6.90;;
3916;SDS011;1973;50.518;7.318;2023-07-08T14:50:16;8.30;;;6.80;;
3916;SDS011;1973;50.518;7.318;2023-07-08T14:52:42;7.60;;;6.80;;
3916;SDS011;1973;50.518;7.318;2023-07-08T14:55:09;7.00;;;6.30;;
3916;SDS011;1973;50.518;7.318;2023-07-08T14:57:40;7.70;;;6.67;;
3916;SDS011;1973;50.518;7.318;2023-07-08T15:00:15;6.43;;;5.83;;
3916;SDS011;1973;50.518;7.318;2023-07-08T15:02:44;9.10;;;6.30;;
3916;SDS011;1973;50.518;7.318;2023-07-08T15:05:22;7.20;;;6.30;;
3916;SDS011;1973;50.518;7.318;2023-07-08T15:07:54;7.50;;;6.60;;
3916;SDS011;1973;50.518;7.318;2023-07-08T15:10:27;7.30;;;6.37;;
3916;SDS011;1973;50.518;7.318;2023-07-08T15:12:55;7.67;;;6.93;;
3916;SDS011;1973;50.518;7.318;2023-07-08T15:15:31;8.30;;;6.70;;
3916;SDS011;1973;50.518;7.318;2023-07-08T15:17:59;9.50;;;6.60;;
3916;SDS011;1973;50.518;7.318;2023-07-08T15:20:28;9.30;;;7.20;;
3916;SDS011;1973;50.518;7.318;2023-07-08T15:22:55;8.43;;;6.63;;
3916;SDS011;1973;50.518;7.318;2023-07-08T15:25:21;8.60;;;6.10;;
3916;SDS011;1973;50.518;7.318;2023-07-08T15:27:51;6.93;;;6.20;;
3916;SDS011;1973;50.518;7.318;2023-07-08T15:30:23;10.40;;;6.73;;
3916;SDS011;1973;50.518;7.318;2023-07-08T15:32:52;8.20;;;5.67;;
3916;SDS011;1973;50.518;7.318;2023-07-08T15:35:21;6.40;;;5.50;;
3916;SDS011;1973;50.518;7.318;2023-07-08T15:37:52;7.00;;;6.27;;
3916;SDS011;1973;50.518;7.318;2023-07-08T15:40:19;11.90;;;6.53;;
3916;SDS011;1973;50.518;7.318;2023-07-08T15:42:49;11.07;;;6.77;;
3916;SDS011;1973;50.518;7.318;2023-07-08T15:47:48;7.90;;;6.60;;
3916;SDS011;1973;50.518;7.318;2023-07-08T15:50:16;8.20;;;5.93;;
3916;SDS011;1973;50.518;7.318;2023-07-08T15:52:48;7.90;;;6.20;;
3916;SDS011;1973;50.518;7.318;2023-07-08T15:55:16;7.97;;;6.87;;
3916;SDS011;1973;50.518;7.318;2023-07-08T15:57:49;8.03;;;7.03;;
3916;SDS011;1973;50.518;7.318;2023-07-08T16:00:20;6.73;;;5.87;;
3916;SDS011;1973;50.518;7.318;2023-07-08T16:02:50;7.60;;;6.30;;
3916;SDS011;1973;50.518;7.318;2023-07-08T16:05:20;7.33;;;6.03;;
3916;SDS011;1973;50.518;7.318;2023-07-08T16:07:47;6.93;;;6.17;;
3916;SDS011;1973;50.518;7.318;2023-07-08T16:10:16;8.30;;;6.40;;
3916;SDS011;1973;50.518;7.318;2023-07-08T16:12:43;7.10;;;6.40;;
3916;SDS011;1973;50.518;7.318;2023-07-08T16:15:15;7.83;;;6.77;;
3916;SDS011;1973;50.518;7.318;2023-07-08T16:17:48;8.13;;;6.73;;
3916;SDS011;1973;50.518;7.318;2023-07-08T16:20:16;8.40;;;6.23;;
3916;SDS011;1973;50.518;7.318;2023-07-08T16:22:48;8.03;;;7.07;;
3916;SDS011;1973;50.518;7.318;2023-07-08T16:25:15;7.70;;;6.70;;
3916;SDS011;1973;50.518;7.318;2023-07-08T16:27:44;9.80;;;6.50;;
3916;SDS011;1973;50.518;7.318;2023-07-08T16:30:14;8.23;;;6.17;;
3916;SDS011;1973;50.518;7.318;2023-07-08T16:32:42;9.13;;;6.13;;
3916;SDS011;1973;50.518;7.318;2023-07-08T16:35:10;7.20;;;6.50;;
3916;SDS011;1973;50.518;7.318;2023-07-08T16:37:38;10.40;;;6.70;;
3916;SDS011;1973;50.518;7.318;2023-07-08T16:40:06;10.00;;;6.80;;